Time;durP1;ratioP1;P1;durP2;ratioP2;P2;SDS_P1;SDS_P2;PMS_P1;PMS_P2;Temp;Humidity;BMP_temperature;BMP_pressure;BME280_temperature;BME280_humidity;BME280_pressure;Samples;Min_cycle;Max_cycle;Signal;HPM_P1;HPM_P2
2022/11/24 00:01:50;;;;;;;26.67;10.27;;;7.80;99.90;;;;;;5064427;28;20126;-70
2022/11/24 00:04:16;;;;;;;19.70;9.80;;;7.80;99.90;;;;;;5051857;28;20053;-70
2022/11/24 00:06:41;;;;;;;20.77;9.77;;;7.80;99.90;;;;;;5066382;28;20047;-70
2022/11/24 00:09:07;;;;;;;19.17;8.77;;;7.90;99.90;;;;;;5050838;28;20056;-70
2022/11/24 00:11:36;;;;;;;24.33;9.48;;;7.90;99.90;;;;;;5046155;28;20056;-70
2022/11/24 00:14:03;;;;;;;22.95;10.48;;;7.80;99.90;;;;;;5057496;28;20049;-70
2022/11/24 00:16:31;;;;;;;23.35;10.20;;;7.80;99.90;;;;;;5084546;28;20100;-70
2022/11/24 00:18:58;;;;;;;19.63;9.00;;;7.80;99.90;;;;;;5053112;28;20053;-70
2022/11/24 00:21:27;;;;;;;19.38;9.18;;;7.80;99.90;;;;;;5082065;28;20090;-70
2022/11/24 00:23:53;;;;;;;18.20;9.05;;;7.80;99.90;;;;;;5059486;28;20056;-70
2022/11/24 00:26:22;;;;;;;21.42;8.40;;;7.80;99.90;;;;;;5054135;28;20036;-70
2022/11/24 00:28:49;;;;;;;19.08;7.90;;;7.80;99.90;;;;;;5063071;28;20052;-70
2022/11/24 00:31:17;;;;;;;22.00;7.95;;;7.70;99.90;;;;;;5058898;28;20044;-70
2022/11/24 00:33:44;;;;;;;22.02;8.40;;;7.70;99.90;;;;;;5056726;28;20106;-70
2022/11/24 00:36:10;;;;;;;24.60;9.05;;;7.70;99.90;;;;;;5081817;28;20051;-70
2022/11/24 00:38:36;;;;;;;22.30;8.00;;;7.60;99.90;;;;;;5052184;28;20053;-70
2022/11/24 00:41:02;;;;;;;21.27;8.35;;;7.70;99.90;;;;;;5062134;28;20132;-70
2022/11/24 00:43:27;;;;;;;19.50;8.32;;;7.60;99.90;;;;;;5046564;28;20055;-70
2022/11/24 00:45:53;;;;;;;22.52;9.20;;;7.60;99.90;;;;;;5077577;28;20055;-70
2022/11/24 00:48:19;;;;;;;18.98;8.25;;;7.60;99.90;;;;;;5065018;28;20117;-70
2022/11/24 00:50:53;;;;;;;20.60;8.00;;;7.60;99.90;;;;;;5088644;28;20104;-70
2022/11/24 00:53:19;;;;;;;26.63;9.00;;;7.60;99.90;;;;;;5086831;28;20052;-70
2022/11/24 00:55:48;;;;;;;21.42;7.70;;;7.60;99.90;;;;;;5056771;28;20049;-70
2022/11/24 00:58:14;;;;;;;22.17;7.57;;;7.50;99.90;;;;;;5069736;28;20056;-70
2022/11/24 01:00:40;;;;;;;20.70;7.78;;;7.60;99.90;;;;;;5079612;28;20037;-70
2022/11/24 01:03:06;;;;;;;26.20;8.35;;;7.50;99.90;;;;;;5081038;28;20040;-70
2022/11/24 01:05:35;;;;;;;28.88;8.98;;;7.50;99.90;;;;;;5060723;28;20053;-70
2022/11/24 01:08:01;;;;;;;17.67;7.10;;;7.50;99.90;;;;;;5074814;28;20049;-70
2022/11/24 01:10:26;;;;;;;17.27;6.57;;;7.40;99.90;;;;;;5083741;28;20066;-70
2022/11/24 01:12:52;;;;;;;19.17;7.65;;;7.50;99.90;;;;;;5055544;28;20041;-70
2022/11/24 01:15:18;;;;;;;21.45;7.35;;;7.50;99.90;;;;;;5067643;28;20037;-70
2022/11/24 01:17:44;;;;;;;23.45;7.82;;;7.50;99.90;;;;;;5053673;28;20114;-70
2022/11/24 01:20:10;;;;;;;19.30;7.30;;;7.40;99.90;;;;;;5056174;28;20064;-70
2022/11/24 01:22:37;;;;;;;21.33;7.35;;;7.40;99.90;;;;;;5077350;28;20045;-70
2022/11/24 01:25:05;;;;;;;31.85;7.20;;;7.40;99.90;;;;;;5052124;28;20543;-70
2022/11/24 01:27:31;;;;;;;25.17;7.50;;;7.40;99.90;;;;;;5065591;28;20045;-70
2022/11/24 01:29:56;;;;;;;25.15;7.85;;;7.30;99.90;;;;;;5055230;28;20053;-70
2022/11/24 01:32:22;;;;;;;24.48;7.38;;;7.30;99.90;;;;;;5051937;28;20066;-70
2022/11/24 01:34:48;;;;;;;21.90;7.03;;;7.30;99.90;;;;;;5054068;28;20041;-70
2022/11/24 01:37:14;;;;;;;17.75;6.82;;;7.20;99.90;;;;;;5049726;28;20045;-70
2022/11/24 01:39:40;;;;;;;18.77;6.45;;;7.20;99.90;;;;;;5068075;28;20102;-70
2022/11/24 01:42:06;;;;;;;18.77;7.05;;;7.30;99.90;;;;;;5050867;28;20048;-70
2022/11/24 01:44:32;;;;;;;24.50;6.65;;;7.20;99.90;;;;;;5070555;28;20521;-70
2022/11/24 01:47:11;;;;;;;23.52;7.20;;;7.20;99.90;;;;;;5084183;28;20045;-70
2022/11/24 01:49:47;;;;;;;17.95;6.00;;;7.30;99.90;;;;;;5052062;28;20051;-70
2022/11/24 01:52:18;;;;;;;30.27;7.10;;;7.20;99.90;;;;;;5067814;28;20075;-70
2022/11/24 01:54:50;;;;;;;18.58;6.00;;;7.20;99.90;;;;;;5064972;28;20047;-70
2022/11/24 01:57:31;;;;;;;28.38;6.93;;;7.20;99.90;;;;;;5075385;28;20049;-70
2022/11/24 02:00:01;;;;;;;23.08;6.88;;;7.30;99.90;;;;;;5048901;28;20041;-70
2022/11/24 02:02:27;;;;;;;;;;;7.30;99.90;;;;;;5048835;28;20088;-70
2022/11/24 02:04:55;;;;;;;26.30;6.75;;;7.30;99.90;;;;;;5051223;28;19982;-70
2022/11/24 02:07:21;;;;;;;25.63;6.68;;;7.30;99.90;;;;;;5069408;28;20088;-70
2022/11/24 02:09:54;;;;;;;25.85;7.45;;;7.30;99.90;;;;;;5064828;28;20071;-70
2022/11/24 02:12:22;;;;;;;21.50;6.38;;;7.30;99.90;;;;;;5038537;28;20406;-70
2022/11/24 02:14:48;;;;;;;21.60;5.97;;;7.30;99.90;;;;;;5045603;28;20053;-70
2022/11/24 02:17:14;;;;;;;22.98;5.75;;;7.20;99.90;;;;;;5031888;28;20045;-70
2022/11/24 02:19:40;;;;;;;19.17;5.93;;;7.20;99.90;;;;;;5047755;28;20086;-70
2022/11/24 02:22:28;;;;;;;20.27;6.25;;;7.20;99.90;;;;;;5080826;28;20049;-70
2022/11/24 02:25:00;;;;;;;23.60;6.03;;;7.30;99.90;;;;;;5052849;28;20120;-70
2022/11/24 02:27:26;;;;;;;22.95;6.45;;;7.30;99.90;;;;;;5033227;28;20455;-70
2022/11/24 02:29:51;;;;;;;24.77;6.10;;;7.20;99.90;;;;;;5052326;28;20044;-70
2022/11/24 02:32:18;;;;;;;18.30;5.70;;;7.20;99.90;;;;;;5050374;28;20124;-70
2022/11/24 02:34:44;;;;;;;24.98;7.35;;;7.20;99.90;;;;;;5053954;28;20045;-70
2022/11/24 02:37:10;;;;;;;20.00;7.65;;;7.20;99.90;;;;;;5051624;28;20521;-70
2022/11/24 02:39:36;;;;;;;20.20;5.53;;;7.20;99.90;;;;;;5044828;28;20045;-70
2022/11/24 02:42:06;;;;;;;20.25;5.45;;;7.10;99.90;;;;;;5032904;28;20131;-70
2022/11/24 02:44:38;;;;;;;23.05;5.80;;;7.10;99.90;;;;;;5052063;28;20091;-70
2022/11/24 02:47:09;;;;;;;28.48;6.25;;;7.20;99.90;;;;;;5035465;28;20039;-70
2022/11/24 02:49:35;;;;;;;18.55;5.55;;;7.20;99.90;;;;;;5063838;28;20436;-70
2022/11/24 02:52:01;;;;;;;24.33;6.20;;;7.30;99.90;;;;;;5065825;28;20071;-70
2022/11/24 02:54:27;;;;;;;24.70;5.70;;;7.30;99.90;;;;;;5064848;28;20483;-70
2022/11/24 02:56:53;;;;;;;23.25;5.35;;;7.40;99.90;;;;;;5084032;28;20100;-70
2022/11/24 02:59:18;;;;;;;30.02;5.95;;;7.40;99.90;;;;;;5064638;28;20059;-70
2022/11/24 03:01:44;;;;;;;25.00;6.50;;;7.30;99.90;;;;;;5056630;28;20063;-70
2022/11/24 03:04:10;;;;;;;18.15;5.57;;;7.30;99.90;;;;;;5029271;28;20088;-70
2022/11/24 03:06:36;;;;;;;27.52;5.70;;;7.40;99.90;;;;;;5064247;28;20038;-70
2022/11/24 03:09:02;;;;;;;23.42;5.70;;;7.40;99.90;;;;;;5079190;28;20048;-70
2022/11/24 03:11:28;;;;;;;18.00;4.95;;;7.40;99.90;;;;;;5067075;28;20111;-70
2022/11/24 03:13:54;;;;;;;20.17;5.43;;;7.40;99.90;;;;;;5046340;28;20139;-70
2022/11/24 03:16:19;;;;;;;24.75;4.82;;;7.40;99.90;;;;;;5064950;28;20041;-70
2022/11/24 03:18:47;;;;;;;23.17;4.88;;;7.50;99.90;;;;;;5065060;28;20111;-70
2022/11/24 03:21:13;;;;;;;22.75;6.00;;;7.50;99.90;;;;;;5055203;28;20513;-70
2022/11/24 03:23:39;;;;;;;22.15;4.82;;;7.50;99.90;;;;;;5097012;28;20059;-70
2022/11/24 03:26:09;;;;;;;21.15;4.40;;;7.40;99.90;;;;;;5058772;28;20092;-70
2022/11/24 03:28:34;;;;;;;19.13;5.43;;;7.40;99.90;;;;;;5052290;28;20106;-70
2022/11/24 03:31:01;;;;;;;22.45;5.80;;;7.40;99.90;;;;;;5062779;28;20587;-70
2022/11/24 03:33:26;;;;;;;22.33;5.15;;;7.40;99.90;;;;;;5046514;28;20584;-70
2022/11/24 03:35:52;;;;;;;26.00;5.15;;;7.40;99.90;;;;;;5052912;28;20072;-70
2022/11/24 03:38:18;;;;;;;19.77;4.65;;;7.50;99.90;;;;;;5055636;28;20421;-70
2022/11/24 03:40:43;;;;;;;16.35;4.90;;;7.60;99.90;;;;;;5065082;28;20119;-70
2022/11/24 03:43:09;;;;;;;23.42;4.85;;;7.60;99.90;;;;;;5046888;28;20052;-70
2022/11/24 03:45:35;;;;;;;24.27;6.45;;;7.50;99.90;;;;;;5063625;28;20102;-70
2022/11/24 03:48:00;;;;;;;25.13;5.22;;;7.50;99.90;;;;;;5032289;28;20053;-70
2022/11/24 03:50:26;;;;;;;23.27;6.03;;;7.50;99.90;;;;;;5051546;28;20053;-70
2022/11/24 03:52:52;;;;;;;24.23;5.68;;;7.40;99.90;;;;;;5097382;28;20041;-70
2022/11/24 03:55:18;;;;;;;24.23;4.47;;;7.50;99.90;;;;;;5076220;28;20171;-70
2022/11/24 03:57:43;;;;;;;20.80;4.22;;;7.50;99.90;;;;;;5058819;28;20100;-70
2022/11/24 04:00:10;;;;;;;19.08;4.18;;;7.50;99.90;;;;;;5065838;28;20115;-70
2022/11/24 04:02:37;;;;;;;24.55;5.40;;;7.50;99.90;;;;;;5054994;28;20080;-70
2022/11/24 04:05:03;;;;;;;22.05;5.03;;;7.40;99.90;;;;;;5087790;28;20043;-70
2022/11/24 04:07:29;;;;;;;20.65;4.57;;;7.40;99.90;;;;;;5065855;28;20139;-70
2022/11/24 04:09:55;;;;;;;19.17;3.65;;;7.30;99.90;;;;;;5051979;28;20512;-70
2022/11/24 04:15:05;;;;;;;16.58;4.40;;;7.20;99.90;;;;;;5078738;28;20048;-70
2022/11/24 04:17:30;;;;;;;21.38;4.15;;;7.30;99.90;;;;;;5074372;28;20395;-70
2022/11/24 04:19:56;;;;;;;19.02;3.88;;;7.20;99.90;;;;;;5061116;28;20094;-70
2022/11/24 04:22:22;;;;;;;22.27;3.97;;;7.20;99.90;;;;;;5037381;28;20060;-70
2022/11/24 04:24:47;;;;;;;28.80;4.50;;;7.20;99.90;;;;;;5056009;28;20128;-70
2022/11/24 04:27:13;;;;;;;14.38;3.78;;;7.30;99.90;;;;;;5049886;28;20056;-70
2022/11/24 04:29:39;;;;;;;19.60;4.70;;;7.40;99.90;;;;;;5068617;28;20043;-70
2022/11/24 04:32:05;;;;;;;19.65;4.88;;;7.30;99.90;;;;;;5073332;28;20055;-70
2022/11/24 04:34:30;;;;;;;17.90;4.07;;;7.30;99.90;;;;;;5077456;28;20383;-70
2022/11/24 04:36:56;;;;;;;21.88;4.25;;;7.30;99.90;;;;;;5029298;28;20432;-70
2022/11/24 04:39:22;;;;;;;24.63;4.20;;;7.20;99.90;;;;;;5045790;28;20068;-70
2022/11/24 04:41:47;;;;;;;19.85;4.15;;;7.20;99.90;;;;;;5009702;28;20061;-70
2022/11/24 04:44:13;;;;;;;25.00;3.95;;;7.10;99.90;;;;;;5043878;28;20053;-70
2022/11/24 04:46:39;;;;;;;23.00;4.72;;;7.10;99.90;;;;;;5063693;28;20060;-70
2022/11/24 04:49:04;;;;;;;18.95;3.90;;;7.10;99.90;;;;;;5079542;28;20048;-70
2022/11/24 04:51:30;;;;;;;19.25;4.38;;;7.10;99.90;;;;;;5035994;28;20044;-70
2022/11/24 04:53:56;;;;;;;17.17;3.58;;;7.20;99.90;;;;;;5063275;28;20056;-70
2022/11/24 04:56:22;;;;;;;13.32;4.05;;;7.20;99.90;;;;;;5059003;28;20045;-70
2022/11/24 04:58:48;;;;;;;18.27;3.25;;;7.10;99.90;;;;;;5059126;28;20092;-70
2022/11/24 05:01:14;;;;;;;15.45;5.13;;;7.10;99.90;;;;;;5058301;28;20055;-69
2022/11/24 05:03:39;;;;;;;19.15;3.33;;;7.10;99.90;;;;;;5057642;28;20127;-70
2022/11/24 05:06:07;;;;;;;18.40;3.78;;;7.10;99.90;;;;;;5045306;28;20123;-70
2022/11/24 05:08:33;;;;;;;24.20;4.07;;;7.10;99.90;;;;;;5083161;28;20048;-70
2022/11/24 05:11:04;;;;;;;16.63;3.97;;;7.20;99.90;;;;;;5066609;28;20036;-70
2022/11/24 05:13:30;;;;;;;20.42;4.18;;;7.10;99.90;;;;;;5049072;28;20048;-70
2022/11/24 05:15:56;;;;;;;19.23;3.63;;;7.00;99.90;;;;;;5044370;28;20067;-70
2022/11/24 05:18:21;;;;;;;21.52;3.88;;;7.10;99.90;;;;;;5065161;28;20091;-70
2022/11/24 05:20:48;;;;;;;22.25;4.03;;;7.10;99.90;;;;;;5064493;28;20052;-70
2022/11/24 05:23:14;;;;;;;22.15;3.40;;;7.00;99.90;;;;;;5088003;28;20040;-70
2022/11/24 05:25:40;;;;;;;18.65;3.95;;;7.00;99.90;;;;;;5059962;28;20347;-70
2022/11/24 05:28:10;;;;;;;19.10;3.80;;;6.90;99.90;;;;;;5092564;28;20037;-70
2022/11/24 05:30:39;;;;;;;14.23;3.73;;;7.00;99.90;;;;;;5075166;28;20088;-70
2022/11/24 05:33:15;;;;;;;21.27;4.18;;;6.90;99.90;;;;;;5064859;28;20037;-70
2022/11/24 05:35:41;;;;;;;17.98;4.43;;;7.00;99.90;;;;;;5050712;28;20550;-67
2022/11/24 05:38:07;;;;;;;17.00;3.67;;;7.00;99.90;;;;;;5047609;28;20120;-67
2022/11/24 05:40:32;;;;;;;14.68;3.67;;;7.00;99.90;;;;;;5085377;28;20045;-67
2022/11/24 05:42:58;;;;;;;21.60;4.78;;;7.00;99.90;;;;;;5034250;28;20136;-67
2022/11/24 05:45:24;;;;;;;22.23;4.43;;;6.90;99.90;;;;;;5084360;28;20060;-67
2022/11/24 05:47:50;;;;;;;21.38;3.67;;;6.90;99.90;;;;;;5087221;28;20051;-67
2022/11/24 05:50:18;;;;;;;17.00;4.72;;;6.90;99.90;;;;;;5066743;28;20040;-67
2022/11/24 05:52:44;;;;;;;22.17;5.10;;;7.00;99.90;;;;;;5056204;28;20040;-66
2022/11/24 05:55:11;;;;;;;16.45;3.65;;;6.90;99.90;;;;;;5040635;28;20061;-66
2022/11/24 05:57:37;;;;;;;18.25;3.88;;;6.90;99.90;;;;;;5053410;28;20546;-67
2022/11/24 06:00:05;;;;;;;18.75;3.85;;;6.90;99.90;;;;;;5051691;28;20094;-66
2022/11/24 06:02:31;;;;;;;22.42;3.78;;;6.90;99.90;;;;;;5025629;28;20045;-66
2022/11/24 06:04:57;;;;;;;19.02;3.67;;;6.90;99.90;;;;;;5029297;28;20053;-66
2022/11/24 06:07:23;;;;;;;17.20;4.47;;;7.00;99.90;;;;;;5013444;28;20305;-67
2022/11/24 06:09:49;;;;;;;20.77;3.63;;;6.90;99.90;;;;;;5026117;28;20049;-68
2022/11/24 06:12:15;;;;;;;23.30;4.38;;;7.00;99.90;;;;;;5028036;28;20044;-67
2022/11/24 06:14:40;;;;;;;19.42;3.78;;;7.00;99.90;;;;;;5011073;28;20041;-67
2022/11/24 06:17:07;;;;;;;19.17;4.82;;;6.90;99.90;;;;;;5029588;28;20068;-67
2022/11/24 06:19:32;;;;;;;12.60;3.25;;;7.00;99.90;;;;;;5027815;28;20049;-67
2022/11/24 06:21:58;;;;;;;22.38;4.80;;;6.90;99.90;;;;;;5048688;28;20037;-66
2022/11/24 06:24:24;;;;;;;19.23;4.47;;;6.90;99.90;;;;;;5044605;28;20184;-66
2022/11/24 06:26:49;;;;;;;25.42;4.45;;;6.90;99.90;;;;;;5031557;28;20060;-67
2022/11/24 06:29:15;;;;;;;18.50;4.53;;;7.00;99.90;;;;;;5028893;28;20052;-66
2022/11/24 06:31:41;;;;;;;17.10;3.50;;;6.90;99.90;;;;;;5068390;28;20054;-66
2022/11/24 06:34:11;;;;;;;19.88;3.67;;;6.80;99.90;;;;;;5030248;28;20076;-66
2022/11/24 06:36:37;;;;;;;;;;;6.90;99.90;;;;;;5029156;28;20038;-67
2022/11/24 06:39:04;;;;;;;18.17;4.55;;;6.90;99.90;;;;;;5009542;28;19956;-66
2022/11/24 06:41:30;;;;;;;21.13;4.60;;;6.80;99.90;;;;;;5061361;28;20494;-66
2022/11/24 06:43:55;;;;;;;20.83;4.40;;;6.90;99.90;;;;;;5028206;28;20056;-67
2022/11/24 06:46:21;;;;;;;19.05;4.03;;;6.90;99.90;;;;;;5031572;28;20075;-66
2022/11/24 06:48:49;;;;;;;20.20;4.20;;;6.80;99.90;;;;;;5029285;28;20056;-67
2022/11/24 06:51:17;;;;;;;19.95;4.20;;;6.90;99.90;;;;;;5061621;28;20049;-67
2022/11/24 06:53:44;;;;;;;20.05;4.63;;;6.80;99.90;;;;;;5028204;28;20057;-67
2022/11/24 06:56:11;;;;;;;15.82;4.20;;;6.90;99.90;;;;;;5038723;28;20056;-67
2022/11/24 06:58:46;;;;;;;22.00;4.13;;;6.90;99.90;;;;;;5082368;28;20501;-67
2022/11/24 07:01:21;;;;;;;22.35;4.32;;;6.90;99.90;;;;;;5052047;28;20037;-67
2022/11/24 07:03:47;;;;;;;21.20;4.20;;;6.90;99.90;;;;;;5051921;28;20040;-67
2022/11/24 07:06:14;;;;;;;23.77;5.40;;;6.90;99.90;;;;;;5047773;28;20071;-67
2022/11/24 07:08:39;;;;;;;27.52;4.85;;;7.00;99.90;;;;;;5052079;28;20507;-66
2022/11/24 07:11:07;;;;;;;18.83;4.20;;;6.90;99.90;;;;;;5051194;28;20045;-67
2022/11/24 07:13:33;;;;;;;32.35;5.85;;;6.90;99.90;;;;;;5053846;28;20045;-69
2022/11/24 07:15:59;;;;;;;16.38;3.60;;;6.90;99.90;;;;;;5028329;28;20056;-66
2022/11/24 07:18:25;;;;;;;22.38;4.38;;;6.90;99.90;;;;;;5052001;28;20053;-66
2022/11/24 07:20:50;;;;;;;27.15;4.68;;;6.80;99.90;;;;;;5054612;28;20051;-66
2022/11/24 07:23:16;;;;;;;17.90;4.18;;;6.90;99.90;;;;;;5081018;28;20100;-66
2022/11/24 07:25:42;;;;;;;17.38;3.65;;;6.90;99.90;;;;;;5054407;28;20048;-66
2022/11/24 07:28:08;;;;;;;17.48;4.10;;;6.80;99.90;;;;;;5047513;28;20115;-66
2022/11/24 07:30:33;;;;;;;29.23;5.15;;;6.80;99.90;;;;;;5054704;28;20048;-66
2022/11/24 07:33:00;;;;;;;20.02;3.58;;;6.90;99.90;;;;;;5067169;28;20048;-66
2022/11/24 07:35:27;;;;;;;21.88;4.60;;;6.90;99.90;;;;;;5054196;28;20083;-66
2022/11/24 07:37:56;;;;;;;19.52;4.35;;;6.90;99.90;;;;;;5048090;28;20563;-66
2022/11/24 07:40:22;;;;;;;26.77;5.00;;;6.80;99.90;;;;;;5041460;28;20044;-66
2022/11/24 07:42:48;;;;;;;29.55;4.75;;;7.00;99.90;;;;;;5052031;28;20048;-66
2022/11/24 07:45:14;;;;;;;21.35;4.03;;;7.00;99.90;;;;;;5050863;28;20088;-66
2022/11/24 07:47:40;;;;;;;22.90;4.72;;;6.90;99.90;;;;;;5059890;28;20105;-66
2022/11/24 07:50:11;;;;;;;22.17;4.30;;;6.90;99.90;;;;;;5047167;28;20048;-66
2022/11/24 07:52:37;;;;;;;23.77;5.55;;;6.90;99.90;;;;;;5053957;28;20059;-67
2022/11/24 07:55:03;;;;;;;22.60;4.93;;;7.00;99.90;;;;;;5056116;28;20045;-66
2022/11/24 07:57:29;;;;;;;22.77;5.50;;;7.00;99.90;;;;;;5023271;28;20143;-66
2022/11/24 07:59:55;;;;;;;24.00;5.93;;;7.00;99.90;;;;;;5043232;28;20441;-66
2022/11/24 08:02:21;;;;;;;25.75;5.60;;;7.00;99.90;;;;;;5028934;28;20048;-66
2022/11/24 08:04:47;;;;;;;24.65;5.47;;;7.00;99.90;;;;;;5052443;28;20120;-66
2022/11/24 08:07:12;;;;;;;23.80;5.93;;;7.00;99.90;;;;;;5063987;28;20043;-67
2022/11/24 08:09:38;;;;;;;25.83;5.20;;;7.00;99.90;;;;;;5060286;28;20060;-67
2022/11/24 08:12:04;;;;;;;21.77;6.10;;;7.00;99.90;;;;;;5060008;28;20071;-66
2022/11/24 08:14:30;;;;;;;24.20;5.93;;;7.10;99.90;;;;;;5053760;28;20049;-67
2022/11/24 08:16:57;;;;;;;27.27;5.05;;;7.10;99.90;;;;;;5061077;28;20040;-67
2022/11/24 08:19:23;;;;;;;20.60;5.10;;;7.10;99.90;;;;;;5069304;28;20036;-67
2022/11/24 08:21:48;;;;;;;19.20;4.68;;;7.20;99.90;;;;;;5037273;28;20084;-67
2022/11/24 08:24:15;;;;;;;21.25;6.05;;;7.20;99.90;;;;;;5053268;28;20057;-67
2022/11/24 08:26:41;;;;;;;21.73;5.15;;;7.20;99.90;;;;;;5043286;28;20541;-67
2022/11/24 08:29:07;;;;;;;22.58;5.70;;;7.30;99.90;;;;;;5052731;28;20063;-67
2022/11/24 08:31:34;;;;;;;21.80;5.13;;;7.30;99.90;;;;;;5021441;28;20052;-68
2022/11/24 08:34:04;;;;;;;18.60;4.93;;;7.30;99.90;;;;;;5058840;28;20691;-67
2022/11/24 08:36:32;;;;;;;21.13;5.28;;;7.40;99.90;;;;;;5058097;28;20143;-67
2022/11/24 08:38:59;;;;;;;15.73;4.93;;;7.30;99.90;;;;;;5050693;28;20253;-67
2022/11/24 08:41:25;;;;;;;21.88;5.35;;;7.40;99.90;;;;;;5033983;28;20049;-66
2022/11/24 08:43:52;;;;;;;19.92;5.47;;;7.40;99.90;;;;;;5045674;28;20102;-67
2022/11/24 08:46:19;;;;;;;23.27;6.22;;;7.40;99.90;;;;;;5063862;28;20045;-67
2022/11/24 08:48:49;;;;;;;26.13;6.53;;;7.40;99.90;;;;;;5049523;28;20060;-67
2022/11/24 08:51:15;;;;;;;;;;;7.50;99.90;;;;;;5057939;28;20084;-67
2022/11/24 08:53:42;;;;;;;25.70;6.10;;;7.60;99.90;;;;;;5063232;28;19928;-67
2022/11/24 08:56:09;;;;;;;20.35;4.82;;;7.60;99.90;;;;;;5029041;28;20076;-67
2022/11/24 08:58:35;;;;;;;22.80;5.82;;;7.70;99.90;;;;;;5066754;28;20076;-67
2022/11/24 09:01:15;;;;;;;25.80;6.07;;;7.70;99.90;;;;;;5048431;28;20053;-67
2022/11/24 09:03:41;;;;;;;;;;;7.80;99.90;;;;;;5048518;28;20081;-67
2022/11/24 09:06:08;;;;;;;18.98;5.43;;;7.80;99.90;;;;;;5042507;28;19921;-67
2022/11/24 09:08:35;;;;;;;17.27;5.05;;;7.80;99.90;;;;;;5053779;28;20048;-67
2022/11/24 09:11:03;;;;;;;18.70;5.15;;;7.90;99.90;;;;;;5077466;28;20037;-67
2022/11/24 09:13:28;;;;;;;16.10;4.22;;;8.00;99.90;;;;;;5053457;28;20666;-67
2022/11/24 09:15:54;;;;;;;22.30;4.85;;;8.00;99.90;;;;;;5042877;28;20060;-67
2022/11/24 09:18:20;;;;;;;17.92;5.82;;;8.00;99.90;;;;;;5064492;28;20165;-68
2022/11/24 09:20:46;;;;;;;18.20;5.18;;;8.00;99.90;;;;;;5047498;28;20068;-67
2022/11/24 09:23:11;;;;;;;16.25;4.10;;;8.00;99.90;;;;;;5051383;28;20055;-67
2022/11/24 09:25:37;;;;;;;14.77;4.10;;;8.20;99.90;;;;;;5071707;28;20047;-67
2022/11/24 09:28:03;;;;;;;19.60;4.43;;;8.30;99.90;;;;;;5041058;28;20045;-67
2022/11/24 09:30:29;;;;;;;15.80;4.05;;;8.30;99.90;;;;;;5062933;28;20048;-67
2022/11/24 09:32:57;;;;;;;12.80;3.47;;;8.30;99.90;;;;;;5058774;28;20052;-67
2022/11/24 09:35:23;;;;;;;11.15;3.75;;;8.40;99.90;;;;;;5045776;28;20045;-67
2022/11/24 09:37:50;;;;;;;12.32;3.42;;;8.40;99.90;;;;;;5011874;28;20101;-67
2022/11/24 09:40:16;;;;;;;8.32;3.75;;;8.50;99.90;;;;;;5066077;28;20070;-67
2022/11/24 09:42:51;;;;;;;12.02;3.75;;;8.50;99.90;;;;;;5054187;28;20084;-71
2022/11/24 09:45:20;;;;;;;10.60;3.42;;;8.50;99.90;;;;;;5029948;28;20072;-67
2022/11/24 09:47:50;;;;;;;10.32;3.63;;;8.50;99.90;;;;;;5045971;28;20129;-68
2022/11/24 09:50:25;;;;;;;6.45;3.00;;;8.50;99.90;;;;;;5037455;28;20491;-67
2022/11/24 09:53:02;;;;;;;8.88;3.20;;;8.50;99.90;;;;;;5058476;28;20052;-68
2022/11/24 09:55:45;;;;;;;7.13;2.80;;;8.60;99.90;;;;;;5063356;28;20052;-68
2022/11/24 09:58:35;;;;;;;7.25;2.97;;;8.70;99.90;;;;;;5044696;28;20052;-67
2022/11/24 10:01:06;;;;;;;10.25;3.05;;;8.70;99.90;;;;;;5044359;28;20110;-68
2022/11/24 10:03:42;;;;;;;9.05;3.40;;;8.70;99.90;;;;;;5050771;28;20480;-67
2022/11/24 10:06:25;;;;;;;8.05;2.80;;;8.70;99.90;;;;;;5069549;28;20133;-67
2022/11/24 10:09:06;;;;;;;7.22;3.10;;;8.70;99.90;;;;;;5058771;28;20048;-68
2022/11/24 10:12:02;;;;;;;7.68;2.88;;;8.80;99.90;;;;;;5083574;28;20139;-68
2022/11/24 10:14:42;;;;;;;8.75;3.00;;;8.90;99.90;;;;;;5032112;28;20736;-67
2022/11/24 10:17:37;;;;;;;4.82;2.20;;;8.90;99.90;;;;;;5039403;28;20091;-67
2022/11/24 10:20:18;;;;;;;5.68;2.97;;;9.00;99.90;;;;;;5047222;28;20042;-68
2022/11/24 10:22:52;;;;;;;4.75;3.25;;;8.90;99.90;;;;;;5054787;28;20080;-67
2022/11/24 10:25:24;;;;;;;6.75;3.13;;;9.00;99.90;;;;;;5068252;28;20468;-67
2022/11/24 10:27:58;;;;;;;6.40;2.80;;;9.10;99.90;;;;;;5041275;28;20074;-67
2022/11/24 10:30:25;;;;;;;8.65;3.33;;;9.10;99.90;;;;;;5061027;28;20044;-68
2022/11/24 10:33:11;;;;;;;9.07;4.10;;;9.20;99.90;;;;;;5053121;28;20044;-68
2022/11/24 10:35:44;;;;;;;8.07;3.38;;;9.20;99.90;;;;;;5043664;28;20045;-68
2022/11/24 10:38:35;;;;;;;8.30;3.55;;;9.20;99.90;;;;;;5039773;28;20055;-68
2022/11/24 10:41:12;;;;;;;11.40;3.50;;;9.30;99.90;;;;;;5047036;28;20040;-68
2022/11/24 10:43:40;;;;;;;7.45;3.25;;;9.30;99.90;;;;;;5049997;28;20057;-68
2022/11/24 10:46:25;;;;;;;7.10;3.10;;;9.40;99.90;;;;;;5032450;28;20048;-68
2022/11/24 10:49:02;;;;;;;7.47;3.10;;;9.40;99.90;;;;;;5039710;28;20286;-67
2022/11/24 10:52:00;;;;;;;5.93;3.22;;;9.40;99.90;;;;;;5028279;28;20045;-67
2022/11/24 10:54:26;;;;;;;6.00;3.38;;;9.40;99.90;;;;;;5042170;28;20072;-67
2022/11/24 10:56:53;;;;;;;8.52;3.42;;;9.40;99.90;;;;;;5058325;28;20098;-67
2022/11/24 10:59:31;;;;;;;6.53;3.30;;;9.40;99.90;;;;;;5037297;28;20148;-67
2022/11/24 11:01:58;;;;;;;10.93;4.32;;;9.30;99.90;;;;;;5065399;28;20060;-68
2022/11/24 11:04:27;;;;;;;6.65;4.00;;;9.30;99.90;;;;;;5042788;28;20057;-67
2022/11/24 11:07:26;;;;;;;8.95;3.90;;;9.20;99.90;;;;;;5065803;28;20047;-68
2022/11/24 11:10:22;;;;;;;7.65;3.70;;;9.20;99.90;;;;;;5017081;28;20084;-67
2022/11/24 11:12:48;;;;;;;9.07;4.32;;;9.30;99.90;;;;;;5056391;28;20061;-68
2022/11/24 11:15:23;;;;;;;9.10;4.18;;;9.30;99.90;;;;;;5029659;28;20033;-68
2022/11/24 11:17:51;;;;;;;5.75;4.20;;;9.30;99.90;;;;;;5043541;28;20143;-68
2022/11/24 11:20:21;;;;;;;8.48;4.10;;;9.30;99.90;;;;;;5051001;28;20120;-68
2022/11/24 11:22:49;;;;;;;6.90;4.40;;;9.30;99.90;;;;;;5034447;28;20044;-67
2022/11/24 11:25:23;;;;;;;9.10;4.15;;;9.40;99.90;;;;;;5060475;28;20076;-68
2022/11/24 11:27:49;;;;;;;11.45;4.10;;;9.50;99.90;;;;;;5073494;28;20084;-67
2022/11/24 11:30:15;;;;;;;9.35;4.13;;;9.70;99.90;;;;;;5055963;28;20056;-67
2022/11/24 11:32:57;;;;;;;7.88;4.63;;;9.70;99.90;;;;;;5041358;28;20052;-68
2022/11/24 11:35:28;;;;;;;9.23;4.38;;;9.90;99.90;;;;;;5051190;28;20041;-68
2022/11/24 11:38:00;;;;;;;11.00;4.28;;;10.00;99.90;;;;;;5012330;28;20104;-68
2022/11/24 11:40:28;;;;;;;9.57;4.70;;;10.10;99.90;;;;;;5060303;28;20123;-67
2022/11/24 11:43:25;;;;;;;9.80;4.60;;;10.20;99.90;;;;;;5039381;28;20044;-67
2022/11/24 11:46:17;;;;;;;11.65;4.68;;;10.20;99.90;;;;;;5064824;28;20147;-67
2022/11/24 11:48:45;;;;;;;9.65;4.93;;;10.20;99.90;;;;;;5045640;28;20057;-67
2022/11/24 11:51:29;;;;;;;11.30;4.45;;;10.30;99.90;;;;;;5045915;28;20045;-67
2022/11/24 11:54:32;;;;;;;13.65;5.38;;;10.30;99.90;;;;;;5046508;28;20053;-68
2022/11/24 11:57:19;;;;;;;10.52;5.00;;;10.30;99.90;;;;;;5047040;28;20082;-67
2022/11/24 12:00:23;;;;;;;14.00;5.40;;;10.30;99.90;;;;;;5045686;28;20519;-68
2022/11/24 12:03:07;;;;;;;13.50;5.20;;;10.40;99.90;;;;;;5037201;28;20071;-68
2022/11/24 12:05:51;;;;;;;9.98;4.57;;;10.40;99.90;;;;;;5047264;28;20560;-67
2022/11/24 12:08:17;;;;;;;10.68;4.72;;;10.50;99.90;;;;;;5054218;28;20122;-67
2022/11/24 12:11:06;;;;;;;17.52;5.38;;;10.50;99.90;;;;;;5064705;28;20045;-68
2022/11/24 12:13:44;;;;;;;12.18;4.72;;;10.50;99.90;;;;;;5053783;28;20055;-68
2022/11/24 12:16:39;;;;;;;10.65;4.15;;;10.50;99.90;;;;;;5067447;28;20045;-67
2022/11/24 12:19:39;;;;;;;15.40;5.53;;;10.50;99.90;;;;;;4991635;28;20080;-67
2022/11/24 12:22:43;;;;;;;14.07;4.90;;;10.50;99.90;;;;;;5060841;28;20037;-67
2022/11/24 12:25:33;;;;;;;11.35;5.00;;;10.50;99.90;;;;;;5021996;28;20076;-67
2022/11/24 12:28:25;;;;;;;11.23;4.45;;;10.60;99.90;;;;;;5071839;28;20048;-67
2022/11/24 12:31:13;;;;;;;16.08;6.03;;;10.60;99.90;;;;;;5038883;28;20351;-67
2022/11/24 12:34:14;;;;;;;11.65;4.53;;;10.70;99.90;;;;;;5070287;28;20062;-67
2022/11/24 12:37:24;;;;;;;13.95;5.15;;;10.70;99.90;;;;;;5060576;28;20044;-67
2022/11/24 12:40:08;;;;;;;14.20;5.18;;;10.70;99.90;;;;;;5020105;28;20053;-67
2022/11/24 12:42:38;;;;;;;10.38;5.70;;;10.70;99.90;;;;;;5062558;28;20071;-67
2022/11/24 12:45:07;;;;;;;13.63;6.40;;;10.80;99.90;;;;;;5064072;28;20044;-67
2022/11/24 12:48:05;;;;;;;14.15;5.40;;;10.70;99.90;;;;;;5047304;28;20097;-67
2022/11/24 12:50:38;;;;;;;18.02;7.03;;;10.70;99.90;;;;;;5014211;28;20052;-68
2022/11/24 12:53:23;;;;;;;12.82;6.38;;;10.70;99.90;;;;;;5074264;28;20276;-67
2022/11/24 12:55:49;;;;;;;12.38;6.82;;;10.70;99.90;;;;;;5076363;28;20061;-67
2022/11/24 12:58:40;;;;;;;15.10;6.30;;;10.60;99.90;;;;;;5073459;28;20049;-67
2022/11/24 13:01:17;;;;;;;;;;;10.60;99.90;;;;;;5054329;28;20059;-67
2022/11/24 13:04:03;;;;;;;17.15;6.78;;;10.70;99.90;;;;;;5072005;28;19999;-67
2022/11/24 13:07:09;;;;;;;13.60;6.35;;;10.70;99.90;;;;;;5077814;28;20049;-67